Time;durP1;ratioP1;P1;durP2;ratioP2;P2;SDS_P1;SDS_P2;PMS_P1;PMS_P2;Temp;Humidity;BMP_temperature;BMP_pressure;BME280_temperature;BME280_humidity;BME280_pressure;Samples;Min_cycle;Max_cycle;Signal;HPM_P1;HPM_P2
2023/06/02 00:02:12;;;;;;;7.03;4.10;;;18.80;40.10;;;20.64;34.04;97536.59;5059921;28;20041;-52
2023/06/02 00:04:40;;;;;;;4.85;4.15;;;18.80;40.70;;;20.62;33.95;97538.72;5059944;28;20523;-54
2023/06/02 00:07:08;;;;;;;6.65;4.45;;;18.80;41.00;;;20.54;33.95;97536.31;5062365;28;20033;-55
2023/06/02 00:09:41;;;;;;;7.13;4.85;;;18.60;41.60;;;20.48;34.69;97538.03;5063376;28;20488;-54
2023/06/02 00:12:12;;;;;;;5.70;3.63;;;18.50;42.10;;;20.42;34.76;97528.94;5051989;28;20041;-55
2023/06/02 00:14:43;;;;;;;7.03;4.53;;;18.40;42.40;;;20.38;34.64;97530.47;5060188;28;20056;-51
2023/06/02 00:17:11;;;;;;;6.15;4.00;;;18.40;42.50;;;20.35;34.88;97530.91;5052053;28;20045;-54
2023/06/02 00:19:42;;;;;;;5.20;4.10;;;18.40;42.60;;;20.27;34.94;97529.31;5059885;28;20040;-54
2023/06/02 00:22:13;;;;;;;6.00;4.35;;;18.30;42.90;;;20.21;35.24;97530.22;5059536;28;20044;-54
2023/06/02 00:24:42;;;;;;;9.50;4.10;;;18.20;43.30;;;20.18;35.30;97535.25;5058393;28;20040;-53
2023/06/02 00:27:10;;;;;;;6.65;4.75;;;18.20;43.50;;;20.15;35.54;97531.13;5049537;28;20045;-54
2023/06/02 00:29:38;;;;;;;7.57;4.47;;;18.20;43.80;;;20.10;35.48;97525.56;5054725;28;20425;-54
2023/06/02 00:32:07;;;;;;;6.35;4.55;;;18.10;43.80;;;20.08;35.56;97534.97;5061856;28;20040;-52
2023/06/02 00:34:35;;;;;;;6.72;4.45;;;18.10;43.70;;;20.05;35.51;97525.44;5045203;28;20056;-51
2023/06/02 00:37:03;;;;;;;6.47;4.07;;;18.10;44.00;;;19.97;35.89;97529.25;5058782;28;20460;-54
2023/06/02 00:39:30;;;;;;;6.50;4.10;;;17.90;44.40;;;19.92;35.98;97534.50;5041516;28;20045;-52
2023/06/02 00:41:59;;;;;;;4.93;3.88;;;17.90;44.70;;;19.89;36.35;97542.22;5059192;28;20044;-52
2023/06/02 00:44:27;;;;;;;7.00;3.90;;;17.80;44.90;;;19.83;36.49;97542.09;5026438;28;20068;-54
2023/06/02 00:46:55;;;;;;;8.57;4.93;;;17.80;45.40;;;19.77;36.35;97542.94;5060176;28;20469;-53
2023/06/02 00:49:24;;;;;;;7.15;4.25;;;17.70;45.40;;;19.74;36.59;97545.31;5057756;28;20048;-54
2023/06/02 00:51:54;;;;;;;7.97;4.55;;;17.60;45.50;;;19.67;36.66;97545.31;5058007;28;20504;-53
2023/06/02 00:54:21;;;;;;;6.75;4.32;;;17.60;45.90;;;19.63;36.74;97546.81;5061589;28;20263;-54
2023/06/02 00:56:51;;;;;;;7.82;4.40;;;17.50;45.80;;;19.57;36.84;97551.22;5062069;28;20048;-54
2023/06/02 00:59:22;;;;;;;7.45;5.13;;;17.50;46.00;;;19.52;37.14;97548.34;5059149;28;20041;-54
2023/06/02 01:01:50;;;;;;;8.23;4.32;;;17.40;46.20;;;19.48;37.09;97547.13;5057837;28;20064;-52
2023/06/02 01:04:19;;;;;;;5.57;4.68;;;17.50;46.10;;;19.46;37.33;97549.22;5060866;28;20146;-54
2023/06/02 01:06:48;;;;;;;5.57;4.22;;;17.50;46.40;;;19.43;37.17;97547.00;5062730;28;20047;-52
2023/06/02 01:09:17;;;;;;;5.05;4.30;;;17.40;46.00;;;19.40;37.26;97548.22;5057643;28;20045;-51
2023/06/02 01:11:47;;;;;;;6.65;3.95;;;17.40;46.00;;;19.34;37.44;97549.13;5058803;28;20045;-53
2023/06/02 01:14:14;;;;;;;8.02;4.35;;;17.30;46.60;;;19.33;37.50;97541.22;5051050;28;20048;-53
2023/06/02 01:16:44;;;;;;;5.85;4.13;;;17.30;46.40;;;19.28;37.46;97542.72;5037640;28;20052;-54
2023/06/02 01:19:13;;;;;;;6.75;4.43;;;17.30;46.80;;;19.25;37.67;97534.22;5049444;28;20040;-53
2023/06/02 01:21:57;;;;;;;6.22;4.93;;;17.20;46.90;;;19.22;37.70;97551.69;5058947;28;20045;-53
2023/06/02 01:24:37;;;;;;;;;;;17.20;47.40;;;19.18;37.60;97549.66;5058856;28;20033;-54
2023/06/02 01:27:07;;;;;;;6.72;4.35;;;17.10;48.80;;;19.14;37.90;97546.56;5061060;28;19921;-50
2023/06/02 01:29:36;;;;;;;9.25;4.78;;;16.90;48.10;;;19.07;38.00;97545.78;5060030;28;20047;-54
2023/06/02 01:32:14;;;;;;;7.03;4.25;;;16.90;48.30;;;19.00;38.06;97539.59;5059425;28;20052;-54
2023/06/02 01:34:52;;;;;;;10.10;4.90;;;16.90;48.60;;;18.94;38.29;97544.03;5038490;28;20509;-50
2023/06/02 01:37:21;;;;;;;6.10;4.25;;;16.80;48.50;;;18.91;38.54;97535.53;5038359;28;20072;-54
2023/06/02 01:39:49;;;;;;;8.00;4.90;;;16.80;48.50;;;18.84;38.60;97532.84;5058929;28;20500;-53
2023/06/02 01:42:19;;;;;;;8.07;4.72;;;16.70;49.30;;;18.79;38.84;97532.66;5064821;28;20077;-50
2023/06/02 01:44:48;;;;;;;8.35;4.35;;;16.70;48.90;;;18.77;38.86;97532.88;5048815;28;20059;-52
2023/06/02 01:47:15;;;;;;;7.63;4.40;;;16.70;48.90;;;18.75;38.87;97531.44;5041007;28;20037;-51
2023/06/02 01:49:43;;;;;;;6.35;4.68;;;16.70;49.90;;;18.69;39.04;97531.25;5037436;28;20324;-52
2023/06/02 01:52:10;;;;;;;7.60;4.47;;;16.60;49.40;;;18.55;39.39;97532.34;5063520;28;20504;-53
2023/06/02 01:54:38;;;;;;;6.57;4.20;;;16.40;50.50;;;18.52;39.46;97537.38;5064715;28;20051;-51
2023/06/02 01:57:07;;;;;;;10.70;5.05;;;16.40;50.10;;;18.38;39.90;97528.50;5062262;28;20044;-52
2023/06/02 01:59:34;;;;;;;6.13;4.18;;;16.30;50.70;;;18.25;40.20;97538.28;5060678;28;20068;-50
2023/06/02 02:02:02;;;;;;;7.28;4.68;;;16.30;50.90;;;18.26;40.11;97542.66;5062289;28;20501;-53
2023/06/02 02:04:30;;;;;;;8.25;4.78;;;16.20;50.70;;;18.25;40.11;97546.38;5065676;28;20055;-52
2023/06/02 02:06:57;;;;;;;6.60;3.97;;;16.20;51.00;;;18.24;40.10;97543.88;5065919;28;20412;-53
2023/06/02 02:09:25;;;;;;;6.65;5.05;;;16.20;50.60;;;18.27;40.03;97544.28;5066273;28;20052;-54
2023/06/02 02:11:52;;;;;;;7.22;4.60;;;16.30;50.80;;;18.22;40.26;97540.59;5065649;28;20063;-54
2023/06/02 02:14:24;;;;;;;7.30;4.63;;;16.20;50.90;;;18.20;40.43;97540.78;5061277;28;20037;-52
2023/06/02 02:16:52;;;;;;;6.75;4.85;;;16.20;51.30;;;18.19;40.49;97541.03;5057781;28;20049;-53
2023/06/02 02:19:22;;;;;;;8.18;5.38;;;16.10;51.40;;;18.15;40.68;97540.63;5063969;28;20067;-54
2023/06/02 02:21:51;;;;;;;8.25;5.00;;;16.10;51.80;;;18.08;40.79;97551.41;5064940;28;20048;-54
2023/06/02 02:24:19;;;;;;;8.00;4.93;;;16.00;52.00;;;18.04;40.89;97550.16;5061123;28;20051;-54
2023/06/02 02:26:47;;;;;;;6.20;4.65;;;15.90;52.30;;;17.99;41.07;97546.44;5062465;28;20052;-52
2023/06/02 02:29:14;;;;;;;6.38;4.90;;;15.90;52.90;;;17.91;41.19;97547.50;5064890;28;20492;-54
2023/06/02 02:31:42;;;;;;;8.30;5.05;;;15.80;53.70;;;17.88;41.42;97545.25;5065244;28;20048;-51
2023/06/02 02:34:12;;;;;;;10.07;5.53;;;15.70;53.40;;;17.85;41.44;97542.97;5060974;28;20096;-53
2023/06/02 02:36:40;;;;;;;7.75;5.15;;;15.70;52.90;;;17.74;41.82;97544.41;5062024;28;20045;-53
2023/06/02 02:39:09;;;;;;;6.50;4.85;;;15.60;53.40;;;17.68;41.72;97551.47;5062386;28;20045;-53
2023/06/02 02:41:36;;;;;;;7.65;5.65;;;15.50;53.90;;;17.51;42.41;97552.91;5063172;28;20041;-51
2023/06/02 02:44:04;;;;;;;9.27;5.22;;;15.40;54.90;;;17.52;42.16;97551.88;5045574;28;20055;-51
2023/06/02 02:46:33;;;;;;;8.07;5.25;;;15.40;54.50;;;17.52;42.11;97550.03;5060362;28;20441;-52
2023/06/02 02:49:01;;;;;;;8.80;5.30;;;15.40;54.60;;;17.47;42.35;97551.69;5066719;28;20515;-53
2023/06/02 02:51:29;;;;;;;6.78;4.85;;;15.30;54.90;;;17.37;42.63;97557.47;5059586;28;20044;-53
2023/06/02 02:53:57;;;;;;;7.95;5.47;;;15.20;55.60;;;17.23;42.87;97551.25;5062324;28;20401;-53
2023/06/02 02:56:27;;;;;;;8.48;5.45;;;15.10;55.20;;;17.25;42.49;97562.66;5064463;28;20051;-53
2023/06/02 02:58:56;;;;;;;9.43;6.30;;;15.20;55.00;;;17.20;42.75;97553.53;5064033;28;20424;-51
2023/06/02 03:01:24;;;;;;;7.45;4.80;;;15.10;54.90;;;17.10;43.06;97559.31;5059527;28;20049;-52
2023/06/02 03:03:53;;;;;;;7.10;5.53;;;15.00;55.50;;;17.08;42.90;97554.13;5056419;28;20402;-52
2023/06/02 03:10:54;;;;;;;8.68;5.30;;;15.00;56.10;;;16.79;43.45;97570.56;5058959;28;20040;-52
2023/06/02 03:13:23;;;;;;;6.90;5.07;;;14.70;56.50;;;16.76;43.76;97576.38;5064125;28;20048;-50
2023/06/02 03:15:52;;;;;;;9.52;6.68;;;14.70;57.00;;;16.66;44.19;97566.81;5062853;28;20063;-53
2023/06/02 03:18:21;;;;;;;7.10;4.78;;;14.50;57.80;;;16.56;44.15;97577.13;5063048;28;20055;-53
2023/06/02 03:20:48;;;;;;;9.80;5.18;;;14.40;57.40;;;16.42;44.43;97565.50;5063130;28;20071;-53
2023/06/02 03:23:17;;;;;;;9.57;6.47;;;14.30;57.70;;;16.41;44.77;97577.28;5035140;28;20041;-53
2023/06/02 03:25:47;;;;;;;9.60;5.72;;;14.30;57.90;;;16.29;44.99;97577.00;5059600;28;20052;-53
2023/06/02 03:28:15;;;;;;;7.75;5.35;;;14.20;58.90;;;16.35;44.88;97572.69;5045614;28;20053;-54
2023/06/02 03:30:43;;;;;;;7.80;5.30;;;14.30;58.20;;;16.40;44.60;97577.47;5062588;28;20070;-53
2023/06/02 03:33:11;;;;;;;8.02;4.55;;;14.30;58.00;;;16.33;44.94;97586.31;5060352;28;20051;-53
2023/06/02 03:35:40;;;;;;;10.07;6.18;;;14.30;58.50;;;16.30;44.93;97576.00;5059398;28;20041;-53
2023/06/02 03:38:08;;;;;;;8.80;6.47;;;14.20;58.30;;;16.31;45.19;97576.81;5067483;28;20436;-49
2023/06/02 03:40:36;;;;;;;7.47;5.55;;;14.30;58.80;;;16.36;44.96;97577.03;5058898;28;20048;-54
2023/06/02 03:43:04;;;;;;;8.20;5.35;;;14.30;58.50;;;16.22;45.17;97580.69;5060994;28;20159;-54
2023/06/02 03:45:32;;;;;;;7.30;5.28;;;14.10;58.80;;;16.25;45.15;97574.94;5062838;28;20040;-53
2023/06/02 03:48:02;;;;;;;9.27;5.53;;;14.20;58.70;;;16.29;45.07;97581.56;5060894;28;20044;-53
2023/06/02 03:50:30;;;;;;;7.38;4.68;;;14.10;59.20;;;16.27;44.97;97581.75;5059179;28;20041;-54
2023/06/02 03:52:58;;;;;;;9.88;5.40;;;14.20;58.60;;;16.31;44.89;97585.69;5060732;28;20056;-53
2023/06/02 03:55:26;;;;;;;7.38;5.68;;;14.20;58.30;;;16.30;44.90;97586.75;5046028;28;20075;-50
2023/06/02 03:57:53;;;;;;;8.82;5.75;;;14.20;58.50;;;16.31;44.87;97588.38;5062229;28;20067;-53
2023/06/02 04:00:21;;;;;;;9.15;5.75;;;14.20;58.80;;;16.24;45.27;97592.06;5062724;28;20044;-52
2023/06/02 04:02:52;;;;;;;8.20;6.20;;;14.10;58.70;;;16.23;45.14;97588.56;5061999;28;20048;-54
2023/06/02 04:05:21;;;;;;;8.68;5.20;;;14.20;58.50;;;16.26;45.05;97584.63;5059269;28;20071;-53
2023/06/02 04:07:49;;;;;;;8.95;6.32;;;14.20;58.50;;;16.18;45.28;97591.00;5058768;28;20413;-53
2023/06/02 04:10:18;;;;;;;9.90;6.18;;;14.10;59.10;;;16.18;45.08;97590.19;5062114;28;20049;-52
2023/06/02 04:12:45;;;;;;;9.88;6.32;;;14.10;59.20;;;16.15;45.40;97594.09;5061934;28;20055;-54
2023/06/02 04:15:14;;;;;;;10.50;5.30;;;14.00;60.00;;;16.08;45.70;97594.03;5059942;28;20412;-53
2023/06/02 04:17:43;;;;;;;7.47;5.43;;;14.00;59.40;;;16.11;45.42;97588.28;5058829;28;20057;-51
2023/06/02 04:20:12;;;;;;;9.05;5.78;;;14.00;59.30;;;16.11;45.53;97590.13;5062034;28;20049;-51
2023/06/02 04:22:41;;;;;;;7.53;5.85;;;14.00;59.40;;;16.05;45.75;97594.44;5061946;28;20044;-50
2023/06/02 04:25:10;;;;;;;9.48;5.65;;;13.90;60.50;;;15.97;46.00;97597.28;5060394;28;20416;-50
2023/06/02 04:27:38;;;;;;;7.78;4.97;;;13.80;60.50;;;15.92;46.27;97597.88;5058116;28;20041;-53
2023/06/02 04:30:08;;;;;;;8.15;5.43;;;13.90;61.30;;;15.75;47.12;97602.69;5057058;28;20045;-53
2023/06/02 04:32:36;;;;;;;11.55;6.35;;;13.60;62.50;;;15.55;47.63;97607.88;5061378;28;20041;-53
2023/06/02 04:35:05;;;;;;;8.00;5.50;;;13.50;63.00;;;15.54;47.54;97602.72;5060823;28;20051;-52
2023/06/02 04:37:34;;;;;;;9.18;5.95;;;13.50;63.60;;;15.40;48.45;97611.69;5057832;28;20540;-53
2023/06/02 04:40:06;;;;;;;11.25;5.93;;;13.40;65.00;;;15.41;48.47;97616.84;5058459;28;20052;-53
2023/06/02 04:42:36;;;;;;;8.27;6.20;;;13.30;65.40;;;15.35;48.63;97615.78;5061464;28;20052;-51
2023/06/02 04:45:16;;;;;;;9.10;5.75;;;13.30;65.10;;;15.35;48.72;97610.41;5060890;28;20052;-49
2023/06/02 04:47:46;;;;;;;10.45;6.35;;;13.30;66.90;;;15.32;48.88;97618.00;5057496;28;20504;-54
2023/06/02 04:50:14;;;;;;;13.60;6.22;;;13.20;66.10;;;15.31;48.92;97619.00;5061531;28;20044;-51
2023/06/02 04:52:44;;;;;;;9.18;6.15;;;13.30;66.70;;;15.26;49.58;97624.97;5061201;28;20045;-50
2023/06/02 04:55:14;;;;;;;9.57;6.28;;;13.20;66.70;;;15.34;49.15;97619.47;5059294;28;20048;-53
2023/06/02 04:57:43;;;;;;;10.82;6.40;;;13.30;66.90;;;15.34;49.28;97627.50;5057628;28;20045;-53
2023/06/02 05:00:13;;;;;;;9.30;5.97;;;13.30;66.20;;;15.42;49.16;97618.50;5043259;28;20045;-53
2023/06/02 05:02:41;;;;;;;12.27;5.95;;;13.50;66.20;;;15.47;49.24;97629.50;5061264;28;20063;-52
2023/06/02 05:05:10;;;;;;;8.43;6.07;;;13.60;66.10;;;15.48;49.38;97625.78;5059573;28;20424;-53
2023/06/02 05:07:38;;;;;;;10.85;6.32;;;13.60;66.20;;;15.58;49.20;97621.94;5057762;28;20048;-52
2023/06/02 05:10:06;;;;;;;8.55;5.70;;;13.70;66.30;;;15.56;49.34;97622.13;5058644;28;20508;-53
2023/06/02 05:12:36;;;;;;;9.15;5.97;;;13.70;65.80;;;15.58;49.49;97624.63;5060731;28;20546;-53
2023/06/02 05:15:06;;;;;;;9.38;6.90;;;13.70;65.90;;;15.57;49.86;97621.13;5060658;28;20055;-54
2023/06/02 05:17:35;;;;;;;11.63;6.75;;;13.60;67.10;;;15.56;49.70;97631.00;5057353;28;20048;-50
2023/06/02 05:20:04;;;;;;;9.80;6.70;;;13.60;67.70;;;15.55;50.21;97631.22;5054723;28;20076;-53
2023/06/02 05:22:31;;;;;;;11.15;6.18;;;13.60;68.10;;;15.59;50.15;97634.34;5060761;28;20055;-55
2023/06/02 05:25:01;;;;;;;9.73;6.07;;;13.70;68.00;;;15.67;50.34;97634.19;5060973;28;20055;-51
2023/06/02 05:27:29;;;;;;;8.20;5.63;;;13.80;67.80;;;15.69;50.32;97635.66;5041091;28;20045;-53
2023/06/02 05:29:58;;;;;;;10.63;6.40;;;13.80;68.10;;;15.65;50.77;97637.06;5057381;28;20041;-50
2023/06/02 05:32:26;;;;;;;9.98;7.03;;;13.80;68.30;;;15.70;50.83;97631.97;5060490;28;20052;-51
2023/06/02 05:34:55;;;;;;;9.80;6.60;;;13.90;69.20;;;15.68;51.39;97638.53;5061042;28;20056;-54
2023/06/02 05:37:23;;;;;;;7.90;5.50;;;13.90;69.10;;;15.77;51.34;97631.22;5041646;28;20048;-54
2023/06/02 05:39:52;;;;;;;9.35;5.93;;;14.00;68.90;;;15.80;51.19;97641.53;5038067;28;20531;-51
2023/06/02 05:42:22;;;;;;;9.63;6.35;;;14.10;69.20;;;15.66;52.16;97633.34;5058741;28;20045;-53
2023/06/02 05:44:50;;;;;;;9.60;6.25;;;14.00;69.90;;;15.77;51.62;97640.09;5060513;28;20056;-53
2023/06/02 05:47:18;;;;;;;9.18;6.43;;;14.10;70.30;;;15.77;51.76;97641.94;5059264;28;20041;-53
2023/06/02 05:49:47;;;;;;;10.23;6.13;;;14.00;70.00;;;15.74;51.63;97638.63;5057618;28;20049;-54
2023/06/02 05:52:14;;;;;;;10.63;6.03;;;14.00;69.50;;;15.82;51.71;97637.66;5058242;28;20056;-53
2023/06/02 05:54:42;;;;;;;10.10;6.75;;;14.20;69.30;;;15.80;52.03;97636.16;5060942;28;20385;-53
2023/06/02 05:57:10;;;;;;;11.32;6.68;;;14.20;69.60;;;15.85;52.12;97639.94;5060058;28;20044;-52
2023/06/02 05:59:39;;;;;;;7.78;6.18;;;14.10;70.80;;;15.89;52.10;97638.53;5057358;28;20052;-51
2023/06/02 06:02:07;;;;;;;8.68;6.00;;;14.20;70.10;;;15.93;52.40;97642.47;5054595;28;20053;-50
2023/06/02 06:04:35;;;;;;;8.68;6.18;;;14.30;70.60;;;15.76;52.63;97641.13;5062307;28;20052;-54
2023/06/02 06:07:04;;;;;;;8.65;5.85;;;14.10;70.60;;;15.75;52.42;97642.13;5060751;28;20615;-52
2023/06/02 06:09:32;;;;;;;9.95;6.55;;;14.00;71.10;;;15.78;52.56;97635.53;5044238;28;20036;-54
2023/06/02 06:12:02;;;;;;;12.05;6.57;;;14.00;71.20;;;15.89;52.25;97635.84;5060568;28;20416;-54
2023/06/02 06:14:31;;;;;;;8.75;6.32;;;14.20;71.60;;;15.99;51.98;97642.72;5061158;28;20111;-54
2023/06/02 06:16:58;;;;;;;9.25;6.32;;;14.30;70.20;;;15.99;52.17;97635.50;5060943;28;20055;-56
2023/06/02 06:19:26;;;;;;;11.70;6.97;;;14.30;70.70;;;16.03;51.98;97636.78;5058770;28;20041;-55
2023/06/02 06:21:54;;;;;;;8.15;6.75;;;14.20;70.30;;;16.02;52.17;97643.16;5056749;28;20053;-53
2023/06/02 06:24:23;;;;;;;10.27;6.93;;;14.30;70.50;;;16.01;51.95;97649.53;5058773;28;20042;-54
2023/06/02 06:26:51;;;;;;;11.30;6.80;;;14.30;69.80;;;16.10;51.60;97650.25;5064281;28;20044;-54
2023/06/02 06:29:19;;;;;;;9.07;6.57;;;14.50;68.50;;;16.10;51.92;97651.06;5063781;28;20056;-55
2023/06/02 06:31:47;;;;;;;8.88;6.63;;;14.60;68.30;;;16.16;51.86;97659.38;5058922;28;20053;-55
2023/06/02 06:34:15;;;;;;;11.25;6.32;;;14.70;68.30;;;16.17;51.96;97655.66;5061556;28;20419;-54
2023/06/02 06:36:43;;;;;;;8.82;6.53;;;14.60;68.50;;;16.19;51.88;97659.81;5060711;28;20053;-55
2023/06/02 06:39:10;;;;;;;9.27;6.25;;;14.60;69.00;;;16.28;51.61;97660.47;5058785;28;20055;-55
2023/06/02 06:41:40;;;;;;;8.35;6.05;;;14.70;68.30;;;16.26;51.92;97660.66;5044971;28;20045;-56
2023/06/02 06:44:12;;;;;;;8.82;6.68;;;14.70;68.50;;;16.23;52.12;97658.38;5049343;28;20053;-55
2023/06/02 06:46:40;;;;;;;9.38;6.53;;;14.60;69.10;;;16.32;51.95;97662.59;5059632;28;20072;-54
2023/06/02 06:49:08;;;;;;;10.43;6.13;;;14.70;70.10;;;16.37;51.80;97661.97;5068027;28;20048;-51
2023/06/02 06:51:36;;;;;;;9.55;6.30;;;14.80;68.30;;;16.49;51.37;97665.75;5061531;28;20045;-56
2023/06/02 06:54:05;;;;;;;7.78;6.57;;;14.90;67.80;;;16.51;51.10;97665.56;5060411;28;20041;-57
2023/06/02 06:56:36;;;;;;;8.65;6.00;;;15.00;67.10;;;16.58;51.08;97671.81;5054403;28;20044;-54
2023/06/02 06:59:03;;;;;;;9.20;6.53;;;15.10;66.60;;;16.57;51.35;97669.31;5061944;28;20421;-56
2023/06/02 07:01:31;;;;;;;9.98;6.93;;;15.10;66.80;;;16.68;51.09;97674.97;5064824;28;20044;-54
2023/06/02 07:03:58;;;;;;;7.50;5.60;;;15.20;66.40;;;16.77;50.92;97666.72;5064465;28;20048;-55
2023/06/02 07:06:26;;;;;;;9.07;6.65;;;15.40;66.40;;;16.68;51.19;97674.97;5062069;28;20049;-57
2023/06/02 07:08:54;;;;;;;10.13;7.03;;;15.40;65.60;;;16.66;51.21;97686.97;5061360;28;20060;-58
2023/06/02 07:11:21;;;;;;;10.70;6.78;;;15.20;65.90;;;16.48;51.49;97682.09;5061871;28;20045;-51
2023/06/02 07:13:50;;;;;;;11.27;7.63;;;15.00;66.50;;;16.58;51.02;97687.94;5064301;28;20045;-55
2023/06/02 07:16:24;;;;;;;9.45;6.25;;;15.00;67.00;;;16.72;51.03;97688.84;5060005;28;20048;-56
2023/06/02 07:18:52;;;;;;;8.77;6.68;;;15.20;66.60;;;16.64;51.03;97673.72;5061049;28;20044;-55
2023/06/02 07:21:20;;;;;;;7.50;6.30;;;15.10;66.70;;;16.60;51.26;97679.69;5062608;28;20049;-56
2023/06/02 07:23:47;;;;;;;9.68;6.65;;;15.10;66.60;;;16.63;50.90;97684.66;5064744;28;20419;-51
2023/06/02 07:26:15;;;;;;;7.25;6.07;;;15.00;66.40;;;16.69;50.86;97681.16;5063539;28;20048;-55
2023/06/02 07:28:43;;;;;;;9.32;6.40;;;15.00;66.90;;;16.60;51.01;97685.06;5059909;28;20424;-56
2023/06/02 07:31:11;;;;;;;10.70;7.13;;;15.00;67.00;;;16.62;50.73;97680.31;5060844;28;20409;-51
2023/06/02 07:33:38;;;;;;;7.65;5.47;;;14.90;66.40;;;16.66;50.80;97671.66;5063342;28;20044;-51
2023/06/02 07:36:06;;;;;;;10.73;6.88;;;15.00;67.00;;;16.71;51.19;97681.78;5064167;28;20105;-54
2023/06/02 07:38:34;;;;;;;10.18;6.03;;;15.10;67.30;;;16.82;50.96;97675.06;5063163;28;20048;-52
2023/06/02 07:41:02;;;;;;;9.00;6.22;;;15.30;66.50;;;16.80;50.96;97669.84;5064378;28;20044;-53
2023/06/02 07:43:29;;;;;;;8.98;6.43;;;15.30;66.60;;;16.82;50.98;97675.88;5060983;28;20064;-55
2023/06/02 07:45:57;;;;;;;8.98;6.15;;;15.30;66.00;;;16.84;50.78;97673.81;5060129;28;20056;-50
2023/06/02 07:48:25;;;;;;;7.47;6.30;;;15.30;66.00;;;16.93;50.83;97677.19;5061768;28;20054;-50
2023/06/02 07:50:53;;;;;;;9.75;6.88;;;15.40;66.10;;;16.95;50.43;97675.13;5064025;28;20051;-53
2023/06/02 07:53:20;;;;;;;10.07;6.43;;;15.40;65.50;;;16.93;50.46;97672.63;5062272;28;20045;-52
2023/06/02 07:55:48;;;;;;;10.68;6.90;;;15.50;65.30;;;16.93;50.63;97672.63;5059017;28;20056;-56
2023/06/02 07:58:16;;;;;;;7.95;6.40;;;15.50;65.10;;;17.04;50.51;97668.53;5057268;28;20056;-57
2023/06/02 08:00:43;;;;;;;9.77;7.00;;;15.50;65.50;;;17.13;50.30;97664.63;5064320;28;20049;-55
2023/06/02 08:03:11;;;;;;;8.55;6.45;;;15.70;64.80;;;17.20;50.02;97670.03;5063491;28;20442;-56
2023/06/02 08:05:39;;;;;;;10.18;7.00;;;15.70;64.20;;;17.08;50.53;97668.97;5060157;28;20524;-54
2023/06/02 08:08:07;;;;;;;8.05;6.03;;;15.70;64.50;;;17.23;50.35;97666.91;5060345;28;20071;-53
2023/06/02 08:10:34;;;;;;;11.98;7.32;;;15.80;64.60;;;17.22;50.10;97669.84;5063618;28;20036;-54
2023/06/02 08:13:02;;;;;;;11.77;7.05;;;15.90;64.00;;;17.15;50.44;97672.47;5063626;28;20040;-52
2023/06/02 08:15:30;;;;;;;9.60;7.13;;;15.80;64.50;;;17.18;50.58;97669.41;5061218;28;20381;-55
2023/06/02 08:17:57;;;;;;;10.95;6.10;;;15.80;64.80;;;17.25;50.19;97672.09;5060034;28;20044;-53
2023/06/02 08:20:25;;;;;;;12.02;7.32;;;15.80;64.80;;;17.29;50.75;97673.34;5061680;28;20045;-56
2023/06/02 08:22:53;;;;;;;11.70;8.77;;;15.90;65.70;;;17.20;50.82;97678.09;5063125;28;20344;-54
2023/06/02 08:25:20;;;;;;;9.82;7.30;;;15.90;64.40;;;17.28;50.31;97677.09;5061951;28;20052;-52
2023/06/02 08:27:48;;;;;;;9.02;6.40;;;15.90;64.10;;;17.38;50.24;97669.44;5059983;28;20536;-52
2023/06/02 08:30:20;;;;;;;10.25;7.43;;;15.90;64.10;;;17.37;50.07;97667.81;5061153;28;20092;-51
2023/06/02 08:32:48;;;;;;;8.77;6.53;;;16.00;63.50;;;17.33;50.23;97669.22;5062864;28;20382;-53
2023/06/02 08:35:16;;;;;;;7.75;6.00;;;16.00;63.50;;;17.38;50.28;97668.63;5062418;28;20507;-53
2023/06/02 08:37:43;;;;;;;10.93;7.38;;;16.10;64.20;;;17.49;50.01;97665.34;5059775;28;20045;-52
2023/06/02 08:40:11;;;;;;;8.50;6.18;;;16.10;64.00;;;17.58;50.10;97663.25;5060057;28;20049;-56
2023/06/02 08:42:40;;;;;;;8.57;6.53;;;16.30;63.30;;;17.66;49.72;97661.22;5051611;28;20040;-56
2023/06/02 08:45:08;;;;;;;9.02;6.20;;;16.40;62.40;;;17.55;50.00;97667.19;5059516;28;20499;-54
2023/06/02 08:47:42;;;;;;;11.75;6.90;;;16.40;62.60;;;17.69;49.68;97655.41;5061009;28;20052;-53
2023/06/02 08:50:10;;;;;;;8.20;6.28;;;16.40;62.40;;;17.84;49.66;97659.81;5063053;28;20055;-54
2023/06/02 08:52:45;;;;;;;8.93;6.45;;;16.50;62.40;;;17.84;49.48;97665.19;5059202;28;20045;-55
2023/06/02 08:55:13;;;;;;;10.13;6.43;;;16.60;62.10;;;17.96;49.20;97652.75;5058411;28;20473;-55
2023/06/02 08:57:41;;;;;;;8.85;5.90;;;16.80;61.60;;;18.09;48.77;97660.00;5050409;28;20037;-53
2023/06/02 09:00:10;;;;;;;8.43;6.28;;;16.90;60.80;;;18.10;48.60;97659.75;5058725;28;20448;-55
2023/06/02 09:02:38;;;;;;;9.82;7.13;;;16.90;60.50;;;18.19;48.36;97663.09;5062528;28;20036;-54
2023/06/02 09:05:07;;;;;;;9.27;7.25;;;16.90;60.50;;;18.01;48.80;97666.44;5061600;28;20044;-54
2023/06/02 09:07:35;;;;;;;8.93;6.40;;;16.80;60.80;;;17.96;49.18;97666.22;5058301;28;20047;-56
2023/06/02 09:10:05;;;;;;;10.25;7.28;;;16.80;60.80;;;18.01;49.01;97661.03;5058862;28;20047;-55
2023/06/02 09:12:50;;;;;;;11.32;7.10;;;16.80;61.30;;;18.12;49.19;97658.75;5061198;28;20044;-55
2023/06/02 09:15:17;;;;;;;10.23;6.38;;;16.90;62.00;;;18.28;49.05;97664.53;5060503;28;20423;-54
2023/06/02 09:17:45;;;;;;;7.47;6.13;;;17.00;61.20;;;18.37;48.86;97667.81;5059250;28;20048;-54
2023/06/02 09:20:14;;;;;;;8.10;6.13;;;17.20;60.60;;;18.38;48.68;97666.78;5059211;28;20045;-54
2023/06/02 09:23:02;;;;;;;10.65;6.43;;;17.20;60.10;;;18.29;48.60;97670.75;5057915;28;20057;-55
2023/06/02 09:25:31;;;;;;;8.27;6.05;;;17.20;60.20;;;18.50;48.44;97672.34;5061502;28;20048;-55
2023/06/02 09:28:01;;;;;;;10.65;7.05;;;17.20;59.80;;;18.51;48.55;97668.59;5061280;28;20049;-55
2023/06/02 09:30:29;;;;;;;9.18;6.20;;;17.30;60.20;;;18.50;48.66;97667.78;5059314;28;20051;-53
2023/06/02 09:32:58;;;;;;;8.52;6.28;;;17.40;60.30;;;18.58;48.44;97668.59;5058862;28;20048;-54
2023/06/02 09:35:37;;;;;;;8.85;6.78;;;17.50;60.00;;;18.69;47.69;97670.66;5059544;28;20412;-53
2023/06/02 09:38:07;;;;;;;8.85;6.60;;;17.50;58.80;;;18.81;47.66;97666.28;5061459;28;20044;-54
2023/06/02 09:40:35;;;;;;;9.27;6.78;;;17.60;58.90;;;18.91;47.61;97662.31;5059566;28;20047;-55
2023/06/02 09:43:06;;;;;;;8.68;6.03;;;17.70;59.50;;;19.02;47.39;97661.63;5059058;28;20041;-53
2023/06/02 09:45:58;;;;;;;8.35;6.20;;;17.80;58.20;;;18.91;47.64;97655.03;5058240;28;20428;-55
2023/06/02 09:48:29;;;;;;;10.48;6.10;;;17.90;58.90;;;19.12;47.26;97661.16;5058646;28;20049;-52
2023/06/02 09:50:58;;;;;;;10.63;5.80;;;17.90;58.20;;;18.98;46.92;97655.84;5058593;28;20041;-54
2023/06/02 09:53:26;;;;;;;7.03;5.80;;;17.90;57.50;;;18.92;46.75;97655.84;5057183;28;20048;-56
2023/06/02 09:55:54;;;;;;;10.10;5.80;;;17.80;57.10;;;19.02;46.26;97654.38;5062559;28;20048;-56
2023/06/02 09:58:21;;;;;;;8.73;6.00;;;17.80;56.90;;;19.00;46.23;97650.19;5061586;28;20048;-57
2023/06/02 10:00:50;;;;;;;8.07;5.90;;;17.80;56.60;;;19.02;46.26;97650.84;5062816;28;20048;-57
2023/06/02 10:03:17;;;;;;;8.43;6.28;;;17.80;56.70;;;19.12;46.19;97651.19;5062337;28;20416;-56
2023/06/02 10:06:05;;;;;;;7.47;6.25;;;17.90;57.10;;;19.14;46.41;97656.38;5065771;28;20051;-55
2023/06/02 10:09:40;;;;;;;8.02;6.40;;;18.10;56.80;;;19.26;46.26;97658.16;5062282;28;20048;-55
2023/06/02 10:12:29;;;;;;;8.07;6.82;;;18.20;56.10;;;19.43;45.93;97655.78;4975923;28;20203;-51
2023/06/02 10:15:54;;;;;;;8.50;6.85;;;18.30;56.50;;;19.41;45.54;97652.47;4960139;28;20531;-52
2023/06/02 10:18:44;;;;;;;6.95;6.22;;;18.40;54.80;;;19.44;44.62;97659.31;5059657;28;20045;-56
2023/06/02 10:22:15;;;;;;;8.10;6.65;;;18.30;54.30;;;19.35;45.34;97656.06;5064007;28;20040;-55
2023/06/02 10:25:04;;;;;;;10.65;6.75;;;18.40;55.00;;;19.51;44.85;97652.00;5036687;28;20060;-54
2023/06/02 10:27:39;;;;;;;10.88;5.82;;;18.40;54.20;;;19.68;44.86;97646.91;5062632;28;20408;-54
2023/06/02 10:30:07;;;;;;;9.32;6.63;;;18.50;55.10;;;19.87;45.26;97650.50;5065338;28;20041;-54
2023/06/02 10:32:47;;;;;;;7.97;6.00;;;18.80;55.20;;;19.99;44.94;97640.66;5061645;28;20495;-53
2023/06/02 10:35:17;;;;;;;8.02;5.88;;;19.00;54.10;;;20.14;44.64;97648.41;5062082;28;20067;-52